Time;durP1;ratioP1;P1;durP2;ratioP2;P2;SDS_P1;SDS_P2;PMS_P1;PMS_P2;Temp;Humidity;BMP_temperature;BMP_pressure;BME280_temperature;BME280_humidity;BME280_pressure;Samples;Min_cycle;Max_cycle;Signal;HPM_P1;HPM_P2
2023/02/23 00:00:32;;;;;;;;;;;;;;;13.93;100.00;98795.16;4981620;28;19929;-53
2023/02/23 00:03:00;;;;;;;;;;;;;;;14.25;100.00;98789.28;4981791;28;19926;-52
2023/02/23 00:05:26;;;;;;;;;;;;;;;14.76;100.00;98774.63;4980278;28;19921;-51
2023/02/23 00:07:51;;;;;;;;;;;;;;;14.17;100.00;98772.38;4980807;28;19980;-53
2023/02/23 00:10:18;;;;;;;;;;;;;;;14.07;100.00;98766.00;5011010;28;19917;-53
2023/02/23 00:12:43;;;;;;;;;;;;;;;14.03;100.00;98767.06;4981694;28;19964;-53
2023/02/23 00:15:09;;;;;;;;;;;;;;;15.05;100.00;98766.13;4986338;28;19969;-54
2023/02/23 00:17:35;;;;;;;;;;;;;;;15.24;100.00;98721.00;4980144;28;20036;-53
2023/02/23 00:20:06;;;;;;;;;;;;;;;15.43;100.00;98716.44;5002650;28;19913;-54
2023/02/23 00:22:31;;;;;;;;;;;;;;;15.31;100.00;98703.34;4981872;28;20008;-52
2023/02/23 00:24:58;;;;;;;;;;;;;;;15.27;100.00;98690.53;4982831;28;20004;-53
2023/02/23 00:27:23;;;;;;;;;;;;;;;15.51;100.00;98694.41;4981509;28;19926;-52
2023/02/23 00:29:49;;;;;;;;;;;;;;;15.53;100.00;98684.78;4981015;28;19929;-52
2023/02/23 00:32:20;;;;;;;;;;;;;;;15.29;100.00;98679.25;4980204;28;20008;-52
2023/02/23 00:34:48;;;;;;;;;;;;;;;14.45;100.00;98698.44;4979416;28;20020;-50
2023/02/23 00:37:14;;;;;;;;;;;;;;;14.77;100.00;98712.28;4979653;28;19922;-52
2023/02/23 00:39:39;;;;;;;;;;;;;;;14.26;100.00;98708.09;4979335;28;19933;-51
2023/02/23 00:42:05;;;;;;;;;;;;;;;14.14;100.00;98725.06;4980593;28;19921;-50
2023/02/23 00:44:32;;;;;;;;;;;;;;;14.46;100.00;98726.03;5016812;28;19922;-51
2023/02/23 00:46:57;;;;;;;;;;;;;;;15.04;100.00;98725.53;4979890;28;19925;-52
2023/02/23 00:49:23;;;;;;;;;;;;;;;15.19;100.00;98707.44;4981945;28;20399;-51
2023/02/23 00:51:48;;;;;;;;;;;;;;;15.38;100.00;98689.94;4987186;28;20580;-52
2023/02/23 00:54:15;;;;;;;;;;;;;;;15.36;100.00;98681.38;4981978;28;19925;-50
2023/02/23 00:56:40;;;;;;;;;;;;;;;15.59;100.00;98677.47;4981135;28;20379;-50
2023/02/23 00:59:05;;;;;;;;;;;;;;;15.56;100.00;98671.66;4987894;28;19921;-51
2023/02/23 01:01:31;;;;;;;;;;;;;;;15.62;100.00;98671.28;5015197;28;19921;-50
2023/02/23 01:03:56;;;;;;;;;;;;;;;15.63;100.00;98671.19;5026890;28;19922;-50
2023/02/23 01:06:21;;;;;;;;;;;;;;;15.79;100.00;98668.56;4997125;28;19926;-51
2023/02/23 01:08:51;;;;;;;;;;;;;;;15.71;100.00;98665.56;4995784;28;19972;-52
2023/02/23 01:11:18;;;;;;;;;;;;;;;15.76;100.00;98662.72;5017760;28;20003;-52
2023/02/23 01:13:46;;;;;;;;;;;;;;;15.72;100.00;98656.88;4990417;28;19983;-52
2023/02/23 01:16:12;;;;;;;;;;;;;;;15.70;100.00;98653.50;4991564;28;20371;-51
2023/02/23 01:18:38;;;;;;;;;;;;;;;15.77;100.00;98654.84;4984777;28;19956;-53
2023/02/23 01:21:06;;;;;;;;;;;;;;;15.71;100.00;98650.00;4978465;28;20020;-51
2023/02/23 01:23:32;;;;;;;;;;;;;;;15.69;100.00;98657.00;4981451;28;19918;-50
2023/02/23 01:25:57;;;;;;;;;;;;;;;15.73;100.00;98648.16;4979603;28;19948;-51
2023/02/23 01:28:22;;;;;;;;;;;;;;;15.65;100.00;98647.75;5018912;28;20473;-52
2023/02/23 01:30:47;;;;;;;;;;;;;;;15.66;100.00;98657.19;4982357;28;19921;-52
2023/02/23 01:33:12;;;;;;;;;;;;;;;15.72;100.00;98656.88;4977798;28;19940;-50
2023/02/23 01:35:38;;;;;;;;;;;;;;;15.72;100.00;98650.84;5002649;28;19921;-51
2023/02/23 01:38:03;;;;;;;;;;;;;;;15.85;100.00;98652.63;5003371;28;19924;-49
2023/02/23 01:40:28;;;;;;;;;;;;;;;15.79;100.00;98642.59;4983309;28;20017;-48
2023/02/23 01:42:57;;;;;;;;;;;;;;;15.80;100.00;98643.44;4984961;28;19914;-48
2023/02/23 01:45:23;;;;;;;;;;;;;;;15.73;100.00;98642.97;5013560;28;19924;-51
2023/02/23 01:47:48;;;;;;;;;;;;;;;15.80;100.00;98643.44;4977821;28;19922;-51
2023/02/23 01:50:15;;;;;;;;;;;;;;;15.71;100.00;98652.59;5013525;28;20016;-53
2023/02/23 01:52:41;;;;;;;;;;;;;;;15.51;100.00;98648.56;5013440;28;19952;-50
2023/02/23 01:55:11;;;;;;;;;;;;;;;15.47;100.00;98657.44;4978844;28;19979;-50
2023/02/23 01:57:37;;;;;;;;;;;;;;;15.67;100.00;98659.72;4978153;28;19917;-51
2023/02/23 02:00:06;;;;;;;;;;;;;;;15.63;100.00;98657.38;4980513;28;20374;-51
2023/02/23 02:02:32;;;;;;;;;;;;;;;15.55;100.00;98649.19;4981361;28;19960;-50
2023/02/23 02:04:58;;;;;;;;;;;;;;;15.59;100.00;98650.69;4993695;28;19995;-50
2023/02/23 02:07:25;;;;;;;;;;;;;;;15.71;100.00;98652.59;5016177;28;20008;-52
2023/02/23 02:10:54;;;;;;;;;;;;;;;15.53;100.00;98645.84;5002912;28;20562;-52
2023/02/23 02:12:50;;;;;;;;;;;;;;;15.55;100.00;98650.03;5011119;28;19918;-51
2023/02/23 02:15:16;;;;;;;;;;;;;;;15.55;100.00;98654.38;5020211;28;19921;-52
2023/02/23 02:18:17;;;;;;;;;;;;;;;15.58;100.00;98654.22;4994220;28;20284;-52
2023/02/23 02:20:45;;;;;;;;;;;;;;;15.55;100.00;98644.84;5012973;28;19948;-52
2023/02/23 02:23:19;;;;;;;;;;;;;;;15.39;100.00;98646.66;4983509;28;20009;-52
2023/02/23 02:25:56;;;;;;;;;;;;;;;15.67;100.00;98651.09;4978706;28;19993;-50
2023/02/23 02:28:28;;;;;;;;;;;;;;;15.65;100.00;98638.19;4977661;28;19922;-52
2023/02/23 02:31:14;;;;;;;;;;;;;;;15.53;100.00;98638.06;5011506;28;20561;-50
2023/02/23 02:33:42;;;;;;;;;;;;;;;15.53;100.00;98633.72;4978457;28;19960;-53
2023/02/23 02:36:26;;;;;;;;;;;;;;;15.48;100.00;98639.16;4978492;28;19925;-53
2023/02/23 02:38:52;;;;;;;;;;;;;;;15.57;100.00;98642.97;4978035;28;19984;-52
2023/02/23 02:41:24;;;;;;;;;;;;;;;15.65;100.00;98645.16;4978311;28;20028;-52
2023/02/23 02:43:52;;;;;;;;;;;;;;;15.66;100.00;98636.44;4978339;28;19921;-51
2023/02/23 02:46:21;;;;;;;;;;;;;;;15.69;100.00;98638.84;4982080;28;19925;-50
2023/02/23 02:48:56;;;;;;;;;;;;;;;15.72;100.00;98625.72;5009148;28;19925;-52
2023/02/23 02:51:27;;;;;;;;;;;;;;;15.57;100.00;98621.41;4978343;28;19926;-49
2023/02/23 02:53:59;;;;;;;;;;;;;;;15.56;100.00;98624.94;5021588;28;19980;-52
2023/02/23 02:56:25;;;;;;;;;;;;;;;15.39;100.00;98628.47;5012849;28;19918;-51
2023/02/23 02:58:50;;;;;;;;;;;;;;;15.53;100.00;98630.28;5016744;28;20114;-49
2023/02/23 04:18:47;;;;;;;;;;;;;;;15.65;100.00;98621.78;5018000;28;19980;-51
2023/02/23 04:21:12;;;;;;;;;;;;;;;15.56;100.00;98630.94;5011270;28;19940;-49
2023/02/23 04:23:39;;;;;;;;;;;;;;;15.56;100.00;98632.72;4979289;28;20194;-49
2023/02/23 04:26:04;;;;;;;;;;;;;;;15.86;100.00;98633.53;5018549;28;19914;-48
2023/02/23 04:28:29;;;;;;;;;;;;;;;15.51;100.00;98626.94;4978350;28;19932;-49
2023/02/23 04:30:55;;;;;;;;;;;;;;;15.42;100.00;98639.53;4979409;28;19918;-49
2023/02/23 04:33:20;;;;;;;;;;;;;;;15.39;100.00;98641.47;4979352;28;20020;-49
2023/02/23 04:35:46;;;;;;;;;;;;;;;15.38;100.00;98639.78;4979081;28;20005;-49
2023/02/23 04:38:11;;;;;;;;;;;;;;;15.31;100.00;98647.09;4978827;28;19929;-50
2023/02/23 04:40:36;;;;;;;;;;;;;;;15.30;100.00;98655.78;4979469;28;19924;-49
2023/02/23 04:43:01;;;;;;;;;;;;;;;15.08;100.00;98655.34;4979309;28;19948;-49
2023/02/23 04:45:27;;;;;;;;;;;;;;;15.16;100.00;98653.16;4980313;28;19980;-51
2023/02/23 04:47:52;;;;;;;;;;;;;;;15.14;100.00;98667.97;4985630;28;19925;-49
2023/02/23 04:50:18;;;;;;;;;;;;;;;15.14;100.00;98670.53;4979834;28;19925;-49
2023/02/23 04:52:43;;;;;;;;;;;;;;;15.29;100.00;98672.28;4979824;28;19925;-48
2023/02/23 04:55:13;;;;;;;;;;;;;;;15.48;100.00;98665.09;4978591;28;19917;-48
2023/02/23 04:57:38;;;;;;;;;;;;;;;15.32;100.00;98664.31;5015186;28;20015;-50
2023/02/23 05:00:03;;;;;;;;;;;;;;;15.27;100.00;98658.56;4979391;28;19917;-49
2023/02/23 05:02:29;;;;;;;;;;;;;;;15.42;100.00;98665.47;4984477;28;20371;-47
2023/02/23 05:04:54;;;;;;;;;;;;;;;15.29;100.00;98664.50;4979145;28;19918;-49
2023/02/23 05:07:19;;;;;;;;;;;;;;;15.33;100.00;98658.22;4996560;28;19925;-50
2023/02/23 05:09:44;;;;;;;;;;;;;;;15.34;100.00;98659.88;4979463;28;19922;-51
2023/02/23 05:12:09;;;;;;;;;;;;;;;15.32;100.00;98660.91;4979010;28;20587;-49
2023/02/23 05:14:35;;;;;;;;;;;;;;;15.37;100.00;98664.91;4977983;28;19928;-51
2023/02/23 05:17:00;;;;;;;;;;;;;;;15.55;100.00;98664.75;4977894;28;19922;-49
2023/02/23 05:19:25;;;;;;;;;;;;;;;15.36;100.00;98663.22;4984448;28;19917;-49
2023/02/23 05:21:50;;;;;;;;;;;;;;;15.25;100.00;98663.00;4981142;28;20447;-49
2023/02/23 05:24:16;;;;;;;;;;;;;;;15.24;100.00;98666.53;4978574;28;20029;-50
2023/02/23 05:26:42;;;;;;;;;;;;;;;15.43;100.00;98667.13;4975088;28;19921;-48
2023/02/23 05:29:07;;;;;;;;;;;;;;;15.66;100.00;98657.19;4978425;28;19967;-51
2023/02/23 05:31:33;;;;;;;;;;;;;;;15.71;100.00;98657.78;4978567;28;19965;-52
2023/02/23 05:33:58;;;;;;;;;;;;;;;15.69;100.00;98655.28;4978697;28;20497;-49
2023/02/23 05:36:23;;;;;;;;;;;;;;;15.67;100.00;98638.94;4979185;28;19929;-48
2023/02/23 05:38:48;;;;;;;;;;;;;;;15.49;100.00;98645.22;4975481;28;19917;-51
2023/02/23 05:41:15;;;;;;;;;;;;;;;15.44;100.00;98647.22;4982458;28;19996;-49
2023/02/23 05:43:41;;;;;;;;;;;;;;;15.46;100.00;98653.16;5003642;28;19976;-49
2023/02/23 05:46:09;;;;;;;;;;;;;;;15.42;100.00;98649.91;4981892;28;20350;-48
2023/02/23 05:48:35;;;;;;;;;;;;;;;15.46;100.00;98654.00;4980005;28;20371;-50
2023/02/23 05:51:01;;;;;;;;;;;;;;;15.43;100.00;98656.75;4976581;28;19933;-52
2023/02/23 05:53:27;;;;;;;;;;;;;;;15.17;100.00;98654.84;4979182;28;19917;-50
2023/02/23 05:55:52;;;;;;;;;;;;;;;15.41;100.00;98656.00;5023704;28;20424;-48
2023/02/23 05:58:17;;;;;;;;;;;;;;;15.44;100.00;98653.25;4978526;28;19932;-52
2023/02/23 06:00:42;;;;;;;;;;;;;;;15.64;100.00;98659.88;4979087;28;19924;-51
2023/02/23 06:03:08;;;;;;;;;;;;;;;15.64;100.00;98652.09;5000952;28;19917;-48
2023/02/23 06:05:33;;;;;;;;;;;;;;;16.10;100.00;98645.94;4978735;28;20028;-49
2023/02/23 06:07:58;;;;;;;;;;;;;;;15.65;100.00;98642.56;4996426;28;20036;-51
2023/02/23 06:10:23;;;;;;;;;;;;;;;15.37;100.00;98641.56;4976552;28;20501;-51
2023/02/23 06:12:49;;;;;;;;;;;;;;;15.28;100.00;98657.66;4994039;28;20338;-48
2023/02/23 06:15:14;;;;;;;;;;;;;;;15.43;100.00;98667.13;4978662;28;20287;-50
2023/02/23 06:17:39;;;;;;;;;;;;;;;15.57;100.00;98665.50;4982632;28;19929;-50
2023/02/23 06:20:06;;;;;;;;;;;;;;;15.90;100.00;98660.16;4977771;28;20149;-48
2023/02/23 06:22:31;;;;;;;;;;;;;;;15.73;100.00;98648.16;4977859;28;20008;-48
2023/02/23 06:24:56;;;;;;;;;;;;;;;15.92;100.00;98649.66;4978017;28;20016;-49
2023/02/23 06:27:21;;;;;;;;;;;;;;;15.47;100.00;98641.88;4980667;28;20031;-50
2023/02/23 06:29:47;;;;;;;;;;;;;;;15.44;100.00;98642.88;4978695;28;20004;-49
2023/02/23 06:32:12;;;;;;;;;;;;;;;15.38;100.00;98653.59;4979454;28;20008;-51
2023/02/23 06:34:38;;;;;;;;;;;;;;;15.59;100.00;98664.50;4983917;28;19965;-51
2023/02/23 06:37:05;;;;;;;;;;;;;;;14.77;100.00;98664.81;4983678;28;19956;-48
2023/02/23 06:39:30;;;;;;;;;;;;;;;15.08;100.00;98691.66;5020446;28;20988;-50
2023/02/23 06:41:55;;;;;;;;;;;;;;;15.33;100.00;98696.31;4984441;28;20145;-49
2023/02/23 06:44:21;;;;;;;;;;;;;;;15.27;100.00;98693.13;4984396;28;20291;-49
2023/02/23 06:46:46;;;;;;;;;;;;;;;14.58;100.00;98699.50;4982816;28;20012;-49
2023/02/23 06:49:11;;;;;;;;;;;;;;;15.06;100.00;98713.31;4984095;28;19941;-49
2023/02/23 06:51:37;;;;;;;;;;;;;;;15.12;100.00;98719.06;4983997;28;19917;-49
2023/02/23 06:54:02;;;;;;;;;;;;;;;15.14;100.00;98717.25;4984045;28;19976;-48
2023/02/23 06:56:27;;;;;;;;;;;;;;;14.95;100.00;98707.03;4986492;28;19924;-49
2023/02/23 06:58:52;;;;;;;;;;;;;;;15.04;100.00;98725.53;4981098;28;19914;-50
2023/02/23 07:01:18;;;;;;;;;;;;;;;14.58;100.00;98730.59;4982039;28;20330;-48
2023/02/23 07:03:43;;;;;;;;;;;;;;;14.67;100.00;98750.00;4983441;28;20298;-50
2023/02/23 07:06:08;;;;;;;;;;;;;;;14.91;100.00;98750.44;4984008;28;19922;-51
2023/02/23 07:08:34;;;;;;;;;;;;;;;14.75;100.00;98742.66;4982833;28;19948;-50
2023/02/23 07:11:08;;;;;;;;;;;;;;;15.14;100.00;98749.19;4984057;28;19918;-48
2023/02/23 07:13:34;;;;;;;;;;;;;;;15.11;100.00;98739.00;4985035;28;19917;-48
2023/02/23 07:15:59;;;;;;;;;;;;;;;14.90;100.00;98743.59;4983966;28;19917;-48
2023/02/23 07:18:26;;;;;;;;;;;;;;;14.36;100.00;98746.38;4982543;28;20719;-48
2023/02/23 07:20:51;;;;;;;;;;;;;;;13.89;100.00;98772.06;4983803;28;19957;-48
2023/02/23 07:23:17;;;;;;;;;;;;;;;13.21;100.00;98789.97;4983716;28;19919;-48
2023/02/23 07:25:42;;;;;;;;;;;;;;;12.59;100.00;98830.59;4983562;28;20232;-48
2023/02/23 07:28:07;;;;;;;;;;;;;;;13.18;100.00;98879.69;4983327;28;19996;-49
2023/02/23 07:30:32;;;;;;;;;;;;;;;13.03;100.00;98903.63;4983562;28;19979;-48
2023/02/23 07:32:58;;;;;;;;;;;;;;;12.76;100.00;98939.25;4983499;28;19937;-49
2023/02/23 07:35:23;;;;;;;;;;;;;;;12.34;100.00;98974.53;4983755;28;19920;-48
2023/02/23 07:37:48;;;;;;;;;;;;;;;11.73;100.00;99013.78;4983152;28;20352;-49
2023/02/23 07:40:13;;;;;;;;;;;;;;;11.66;100.00;99074.25;4984535;28;20776;-49
2023/02/23 07:42:39;;;;;;;;;;;;;;;11.48;100.00;99134.22;4983733;28;19922;-50
2023/02/23 07:45:04;;;;;;;;;;;;;;;11.27;89.84;99206.22;4979430;28;20395;-51
2023/02/23 07:47:30;;;;;;;;;;;;;;;11.55;75.44;99300.75;4979654;28;20370;-52
2023/02/23 07:49:58;;;;;;;;;;;;;;;11.69;68.90;99357.09;4981919;28;20145;-49
2023/02/23 07:52:24;;;;;;;;;;;;;;;11.56;63.07;99397.88;4980913;28;20021;-49
2023/02/23 07:54:49;;;;;;;;;;;;;;;11.59;58.62;99444.22;4980137;28;20364;-51
2023/02/23 07:57:14;;;;;;;;;;;;;;;11.59;55.36;99485.50;4979631;28;19917;-48
2023/02/23 07:59:40;;;;;;;;;;;;;;;11.63;53.58;99512.03;4980130;28;19969;-51
2023/02/23 08:02:05;;;;;;;;;;;;;;;11.86;51.26;99550.97;4980388;28;19918;-48
2023/02/23 08:04:31;;;;;;;;;;;;;;;11.60;52.20;99559.41;4980517;28;19924;-49
2023/02/23 08:06:56;;;;;;;;;;;;;;;11.55;49.71;99574.19;4982178;28;20422;-49
2023/02/23 08:09:21;;;;;;;;;;;;;;;11.79;48.30;99600.19;4983517;28;20279;-50
2023/02/23 08:11:46;;;;;;;;;;;;;;;11.49;48.96;99602.69;4980447;28;20330;-49
2023/02/23 08:14:12;;;;;;;;;;;;;;;12.01;46.48;99636.63;4979920;28;20657;-48
2023/02/23 08:16:37;;;;;;;;;;;;;;;11.71;49.12;99639.94;4980030;28;20968;-49
2023/02/23 08:19:02;;;;;;;;;;;;;;;11.95;50.14;99640.22;4978979;28;19929;-49
2023/02/23 08:21:30;;;;;;;;;;;;;;;11.60;51.25;99635.97;4980327;28;19917;-48
2023/02/23 08:23:56;;;;;;;;;;;;;;;11.90;50.75;99654.97;4979275;28;19917;-50
2023/02/23 08:26:23;;;;;;;;;;;;;;;11.81;50.82;99650.88;4979818;28;19941;-48
2023/02/23 08:28:49;;;;;;;;;;;;;;;11.77;49.93;99654.44;4978250;28;19983;-49
2023/02/23 08:31:17;;;;;;;;;;;;;;;12.06;46.60;99687.22;4981900;28;20310;-48
2023/02/23 08:33:42;;;;;;;;;;;;;;;11.87;48.36;99688.59;4979975;28;19965;-47
2023/02/23 08:36:07;;;;;;;;;;;;;;;12.23;48.47;99704.03;5019239;28;19965;-50
2023/02/23 08:38:35;;;;;;;;;;;;;;;11.47;52.05;99662.09;4983428;28;19924;-49
2023/02/23 08:41:00;;;;;;;;;;;;;;;10.91;49.19;99661.69;4979729;28;19918;-49
2023/02/23 08:43:26;;;;;;;;;;;;;;;10.91;39.22;99700.34;5020629;28;19972;-50
2023/02/23 08:45:51;;;;;;;;;;;;;;;10.94;33.25;99748.41;4980928;28;20465;-49
2023/02/23 08:48:16;;;;;;;;;;;;;;;10.92;28.84;99788.81;4978511;28;19921;-50
2023/02/23 08:50:41;;;;;;;;;;;;;;;11.00;26.59;99825.59;4982421;28;19917;-48
2023/02/23 08:53:07;;;;;;;;;;;;;;;10.87;25.74;99861.91;4978016;28;19918;-50
2023/02/23 08:55:34;;;;;;;;;;;;;;;10.88;23.45;99879.09;4979366;28;20032;-50
2023/02/23 08:57:59;;;;;;;;;;;;;;;11.13;23.04;99919.84;4981070;28;19948;-49
2023/02/23 09:00:25;;;;;;;;;;;;;;;10.71;24.10;99912.03;4978700;28;19918;-52
2023/02/23 09:02:50;;;;;;;;;;;;;;;10.98;22.39;99958.81;4979185;28;19956;-51
2023/02/23 09:05:15;;;;;;;;;;;;;;;11.15;21.77;99985.09;4978635;28;20631;-48
2023/02/23 09:07:43;;;;;;;;;;;;;;;11.35;22.54;100012.25;4979015;28;19928;-50
2023/02/23 09:10:10;;;;;;;;;;;;;;;11.10;25.18;99992.91;4977059;28;19918;-51
2023/02/23 09:12:35;;;;;;;;;;;;;;;11.22;24.39;100003.88;5013113;28;19941;-49
2023/02/23 09:15:01;;;;;;;;;;;;;;;11.18;25.32;100007.41;4978811;28;20383;-49
2023/02/23 09:17:26;;;;;;;;;;;;;;;11.07;25.18;100013.59;4977876;28;20448;-48
2023/02/23 09:19:51;;;;;;;;;;;;;;;10.58;26.69;100006.72;4978957;28;19918;-51
2023/02/23 09:22:19;;;;;;;;;;;;;;;11.02;24.99;100046.34;4979230;28;20012;-48
2023/02/23 09:24:45;;;;;;;;;;;;;;;10.79;25.80;100049.31;4978058;28;20062;-48
2023/02/23 09:27:13;;;;;;;;;;;;;;;10.52;26.36;100049.75;4978084;28;19928;-50
2023/02/23 09:29:42;;;;;;;;;;;;;;;10.66;25.68;100084.72;4978222;28;19917;-50
2023/02/23 09:32:08;;;;;;;;;;;;;;;10.87;25.26;100106.72;4978497;28;20444;-49
2023/02/23 09:34:33;;;;;;;;;;;;;;;10.89;26.01;100122.16;4978705;28;20013;-47
2023/02/23 09:37:00;;;;;;;;;;;;;;;10.71;27.28;100120.72;4976214;28;20497;-48
2023/02/23 09:39:25;;;;;;;;;;;;;;;11.15;26.64;100155.25;4978444;28;19921;-50
2023/02/23 09:42:06;;;;;;;;;;;;;;;11.16;26.81;100154.41;5025639;28;19925;-48
2023/02/23 09:44:47;;;;;;;;;;;;;;;10.87;27.89;100145.38;4978487;28;20347;-47
2023/02/23 09:47:12;;;;;;;;;;;;;;;11.06;28.69;100161.44;4980312;28;19963;-51
2023/02/23 09:49:38;;;;;;;;;;;;;;;10.86;29.33;100159.16;4982534;28;20330;-50
2023/02/23 09:52:03;;;;;;;;;;;;;;;10.86;28.77;100169.44;5013430;28;19920;-50
2023/02/23 09:54:32;;;;;;;;;;;;;;;11.01;29.66;100180.41;5017048;28;20605;-49
2023/02/23 09:56:57;;;;;;;;;;;;;;;11.07;30.25;100180.31;4979315;28;20332;-49
2023/02/23 09:59:23;;;;;;;;;;;;;;;11.05;31.94;100164.03;5012374;28;19992;-49
2023/02/23 10:01:54;;;;;;;;;;;;;;;11.06;31.39;100161.44;4977015;28;19922;-51
2023/02/23 10:04:39;;;;;;;;;;;;;;;10.95;30.91;100163.31;4978093;28;19921;-48
2023/02/23 10:07:12;;;;;;;;;;;;;;;11.51;29.13;100199.38;4978957;28;19918;-50
2023/02/23 10:09:37;;;;;;;;;;;;;;;11.26;32.54;100175.72;5012840;28;19925;-48
2023/02/23 10:12:09;;;;;;;;;;;;;;;11.34;33.34;100160.16;4982842;28;19924;-48
2023/02/23 10:14:44;;;;;;;;;;;;;;;10.76;35.21;100118.91;5011519;28;20352;-50
2023/02/23 10:17:22;;;;;;;;;;;;;;;10.54;32.21;100130.41;4977381;28;19918;-47
2023/02/23 10:19:57;;;;;;;;;;;;;;;10.69;31.88;100166.25;5016126;28;19933;-48
2023/02/23 10:22:22;;;;;;;;;;;;;;;10.53;32.55;100181.06;4977878;28;19984;-49
2023/02/23 10:24:50;;;;;;;;;;;;;;;10.42;33.32;100200.94;4977954;28;20026;-49
2023/02/23 10:27:16;;;;;;;;;;;;;;;10.69;34.02;100246.13;4976855;28;20028;-47
2023/02/23 10:29:42;;;;;;;;;;;;;;;10.85;35.89;100270.81;5014708;28;19917;-50
2023/02/23 10:32:27;;;;;;;;;;;;;;;10.59;37.34;100272.88;5008324;28;19917;-49
2023/02/23 10:34:55;;;;;;;;;;;;;;;10.72;38.64;100296.75;4977337;28;20283;-47
2023/02/23 10:37:20;;;;;;;;;;;;;;;10.78;38.67;100323.31;4975058;28;19917;-48
2023/02/23 10:39:48;;;;;;;;;;;;;;;11.20;38.07;100356.31;4977099;28;20486;-49
2023/02/23 10:42:14;;;;;;;;;;;;;;;10.98;38.84;100342.84;4977809;28;20367;-47
2023/02/23 10:44:41;;;;;;;;;;;;;;;10.96;39.05;100329.13;5008398;28;20298;-48
2023/02/23 10:47:07;;;;;;;;;;;;;;;10.94;39.71;100330.84;4974499;28;19961;-51
2023/02/23 10:49:51;;;;;;;;;;;;;;;11.14;38.82;100352.09;4978267;28;19918;-49
2023/02/23 10:52:26;;;;;;;;;;;;;;;10.85;40.29;100327.50;4980778;28;19918;-48
2023/02/23 10:54:51;;;;;;;;;;;;;;;10.99;39.73;100344.53;4995206;28;20000;-49
2023/02/23 10:57:22;;;;;;;;;;;;;;;11.06;39.15;100346.16;4982449;28;20056;-49
2023/02/23 11:00:05;;;;;;;;;;;;;;;11.26;38.46;100343.34;4977922;28;19918;-49
2023/02/23 11:02:30;;;;;;;;;;;;;;;11.12;39.30;100317.75;4984712;28;20020;-48
2023/02/23 11:04:56;;;;;;;;;;;;;;;11.10;39.09;100316.91;5012841;28;20000;-49
2023/02/23 11:07:28;;;;;;;;;;;;;;;10.98;38.87;100312.75;4979588;28;20327;-48
2023/02/23 11:09:54;;;;;;;;;;;;;;;11.25;38.23;100332.19;4975496;28;20413;-51
2023/02/23 11:12:28;;;;;;;;;;;;;;;10.91;39.28;100305.13;4977450;28;19922;-52
2023/02/23 11:14:54;;;;;;;;;;;;;;;10.95;39.72;100311.94;4977092;28;20379;-49
2023/02/23 11:17:29;;;;;;;;;;;;;;;11.21;38.49;100325.34;4976740;28;19937;-50
2023/02/23 11:19:58;;;;;;;;;;;;;;;11.42;38.35;100318.19;4980456;28;20590;-51
2023/02/23 11:22:25;;;;;;;;;;;;;;;10.92;40.40;100270.75;5019088;28;20427;-48
2023/02/23 11:24:51;;;;;;;;;;;;;;;11.07;37.97;100280.88;5020784;28;19922;-51
2023/02/23 11:27:20;;;;;;;;;;;;;;;11.38;37.38;100303.63;5012928;28;20425;-50
2023/02/23 11:29:46;;;;;;;;;;;;;;;11.06;38.44;100280.00;5004531;28;19940;-51
2023/02/23 11:32:22;;;;;;;;;;;;;;;11.18;37.99;100286.72;4996153;28;19972;-49
2023/02/23 11:34:48;;;;;;;;;;;;;;;11.21;38.17;100276.34;5025694;28;20066;-51
2023/02/23 11:37:16;;;;;;;;;;;;;;;11.41;36.97;100282.97;4994511;28;19917;-49
2023/02/23 11:39:58;;;;;;;;;;;;;;;11.12;38.39;100247.28;4980817;28;19917;-50
2023/02/23 11:42:24;;;;;;;;;;;;;;;11.14;37.87;100256.69;4981177;28;20387;-49
2023/02/23 11:45:09;;;;;;;;;;;;;;;11.63;36.83;100280.91;4985371;28;20449;-49
2023/02/23 11:47:37;;;;;;;;;;;;;;;11.31;38.10;100259.03;4984075;28;19976;-49
2023/02/23 11:50:03;;;;;;;;;;;;;;;10.99;39.81;100219.13;5017346;28;19918;-48
2023/02/23 11:52:28;;;;;;;;;;;;;;;11.08;38.72;100221.56;5024153;28;19925;-48
2023/02/23 11:54:56;;;;;;;;;;;;;;;11.39;38.24;100238.28;5019284;28;19917;-48
2023/02/23 11:57:27;;;;;;;;;;;;;;;11.40;38.31;100227.09;4984980;28;20017;-48
2023/02/23 11:59:52;;;;;;;;;;;;;;;11.54;37.54;100235.47;4980080;28;20390;-48
2023/02/23 12:02:21;;;;;;;;;;;;;;;11.84;37.95;100235.84;4980662;28;19922;-48
2023/02/23 12:04:46;;;;;;;;;;;;;;;11.69;39.57;100191.34;4979809;28;20023;-48
2023/02/23 12:07:33;;;;;;;;;;;;;;;11.73;40.01;100185.25;5021453;28;20087;-49
2023/02/23 12:10:17;;;;;;;;;;;;;;;11.81;41.35;100161.03;4979264;28;19929;-49
2023/02/23 12:12:48;;;;;;;;;;;;;;;11.61;42.29;100139.03;4981390;28;20000;-49
2023/02/23 12:15:36;;;;;;;;;;;;;;;12.11;42.23;100141.53;4985381;28;20417;-49
2023/02/23 12:18:20;;;;;;;;;;;;;;;12.72;42.99;100147.16;4984454;28;20188;-50
2023/02/23 12:20:47;;;;;;;;;;;;;;;11.59;48.99;100035.00;4979636;28;20322;-49
2023/02/23 12:23:14;;;;;;;;;;;;;;;11.46;45.23;100041.28;5018257;28;19932;-47
2023/02/23 12:25:41;;;;;;;;;;;;;;;11.87;44.55;100066.28;4997539;28;20921;-47
2023/02/23 12:28:26;;;;;;;;;;;;;;;11.33;46.64;100032.91;5012903;28;20379;-48
2023/02/23 12:30:57;;;;;;;;;;;;;;;11.38;42.16;100053.44;4978569;28;20016;-48
2023/02/23 12:33:32;;;;;;;;;;;;;;;11.15;41.52;100070.16;4997963;28;19964;-50
2023/02/23 12:36:01;;;;;;;;;;;;;;;11.39;38.79;100101.59;4979507;28;19918;-51
2023/02/23 12:38:36;;;;;;;;;;;;;;;11.46;39.34;100108.34;4978263;28;19964;-48
2023/02/23 12:41:11;;;;;;;;;;;;;;;11.26;40.54;100101.78;4983142;28;19967;-51
2023/02/23 12:43:38;;;;;;;;;;;;;;;11.65;38.42;100125.16;5016974;28;19921;-47
2023/02/23 12:46:05;;;;;;;;;;;;;;;11.66;40.88;100113.97;5012753;28;19952;-50
2023/02/23 12:48:51;;;;;;;;;;;;;;;11.72;41.76;100098.41;5021174;28;19936;-47
2023/02/23 12:51:30;;;;;;;;;;;;;;;11.00;46.88;100031.78;4979363;28;20005;-49
2023/02/23 12:53:55;;;;;;;;;;;;;;;11.55;40.08;100084.94;5018603;28;19917;-50
2023/02/23 12:56:24;;;;;;;;;;;;;;;11.00;43.09;100058.41;4978393;28;19922;-51
2023/02/23 12:58:55;;;;;;;;;;;;;;;10.73;40.74;100064.84;4978798;28;20002;-46
2023/02/23 13:01:21;;;;;;;;;;;;;;;10.81;38.08;100098.22;4979118;28;19921;-48
2023/02/23 13:03:55;;;;;;;;;;;;;;;10.18;39.87;100101.66;4979152;28;19918;-47
2023/02/23 13:06:29;;;;;;;;;;;;;;;10.05;39.91;100130.13;4979015;28;20376;-50
2023/02/23 13:08:54;;;;;;;;;;;;;;;10.12;40.34;100178.97;5011224;28;19965;-48
2023/02/23 13:11:26;;;;;;;;;;;;;;;10.09;42.17;100212.47;4979128;28;20048;-49
2023/02/23 13:13:52;;;;;;;;;;;;;;;9.80;46.40;100232.44;4997619;28;19925;-48
2023/02/23 13:16:20;;;;;;;;;;;;;;;9.79;47.77;100265.94;4978836;28;20375;-48
2023/02/23 13:18:48;;;;;;;;;;;;;;;9.88;48.55;100296.72;5015891;28;19979;-47
2023/02/23 13:21:17;;;;;;;;;;;;;;;9.52;51.01;100305.56;5000806;28;20460;-48
2023/02/23 13:24:01;;;;;;;;;;;;;;;9.64;52.84;100352.59;4978564;28;19917;-51
2023/02/23 13:26:38;;;;;;;;;;;;;;;9.60;55.25;100378.34;5015119;28;20752;-48
2023/02/23 13:29:12;;;;;;;;;;;;;;;9.92;55.55;100419.34;4977596;28;19980;-48
2023/02/23 13:31:38;;;;;;;;;;;;;;;9.72;57.55;100416.03;4977960;28;19926;-48
2023/02/23 13:34:04;;;;;;;;;;;;;;;9.90;56.96;100436.50;5005453;28;19932;-48
2023/02/23 13:36:30;;;;;;;;;;;;;;;9.66;58.75;100416.91;5017599;28;20088;-49
2023/02/23 13:38:58;;;;;;;;;;;;;;;9.67;59.33;100434.06;4977554;28;20004;-49
2023/02/23 13:41:23;;;;;;;;;;;;;;;9.26;60.81;100437.69;4976097;28;19964;-49
2023/02/23 13:43:52;;;;;;;;;;;;;;;9.48;62.26;100464.16;4976793;28;20840;-49
2023/02/23 13:46:17;;;;;;;;;;;;;;;9.48;63.29;100492.44;5013488;28;19998;-48
2023/02/23 13:48:48;;;;;;;;;;;;;;;9.66;63.51;100518.97;4979193;28;20351;-49
2023/02/23 13:51:17;;;;;;;;;;;;;;;9.48;63.90;100492.44;4978283;28;19922;-48
2023/02/23 13:53:42;;;;;;;;;;;;;;;9.32;64.69;100488.22;5017996;28;19971;-48
2023/02/23 13:56:14;;;;;;;;;;;;;;;9.14;65.48;100487.38;4973637;28;19921;-50
2023/02/23 13:58:44;;;;;;;;;;;;;;;9.51;65.38;100531.03;5012305;28;20533;-48